Time;durP1;ratioP1;P1;durP2;ratioP2;P2;SDS_P1;SDS_P2;PMS_P1;PMS_P2;Temp;Humidity;BMP_temperature;BMP_pressure;BME280_temperature;BME280_humidity;BME280_pressure;Samples;Min_cycle;Max_cycle;Signal;HPM_P1;HPM_P2
2021/01/12 00:02:23;;;;;;;28.77;19.48;;;;;;;;;;5096766;28;20058;-88
2021/01/12 00:04:49;;;;;;;28.85;19.77;;;;;;;;;;5096912;28;20066;-89
2021/01/12 00:07:24;;;;;;;27.38;21.67;;;;;;;;;;5097500;28;20035;-89
2021/01/12 00:09:53;;;;;;;27.67;23.02;;;;;;;;;;5096639;28;20032;-91
2021/01/12 00:12:19;;;;;;;26.00;19.08;;;;;;;;;;5097459;28;20024;-88
2021/01/12 00:14:46;;;;;;;27.98;19.98;;;;;;;;;;5096486;28;20043;-89
2021/01/12 00:17:13;;;;;;;34.05;21.75;;;;;;;;;;5097711;28;20047;-89
2021/01/12 00:19:42;;;;;;;27.38;20.20;;;;;;;;;;5097265;28;20039;-89
2021/01/12 00:22:15;;;;;;;26.27;21.08;;;;;;;;;;5097275;28;20055;-91
2021/01/12 00:24:54;;;;;;;27.95;20.88;;;;;;;;;;5096159;28;20048;-89
2021/01/12 00:27:23;;;;;;;32.33;21.02;;;;;;;;;;5100206;28;20031;-88
2021/01/12 00:29:53;;;;;;;29.10;21.08;;;;;;;;;;5100916;28;20038;-88
2021/01/12 00:32:24;;;;;;;25.10;21.05;;;;;;;;;;5101666;28;20441;-87
2021/01/12 00:34:54;;;;;;;26.80;20.60;;;;;;;;;;5102492;28;20073;-90
2021/01/12 00:37:21;;;;;;;27.92;21.00;;;;;;;;;;5103840;28;20280;-87
2021/01/12 00:39:48;;;;;;;27.65;22.38;;;;;;;;;;5102420;28;20039;-89
2021/01/12 00:42:17;;;;;;;25.00;20.60;;;;;;;;;;5101841;28;20084;-87
2021/01/12 00:44:46;;;;;;;28.58;21.05;;;;;;;;;;5101799;28;20035;-88
2021/01/12 00:47:23;;;;;;;26.85;19.75;;;;;;;;;;5103041;28;20030;-89
2021/01/12 00:49:58;;;;;;;28.63;21.58;;;;;;;;;;5101762;28;20028;-89
2021/01/12 00:52:24;;;;;;;25.52;20.15;;;;;;;;;;5119226;28;20023;-89
2021/01/12 00:54:53;;;;;;;27.25;21.75;;;;;;;;;;5101977;28;20442;-89
2021/01/12 00:57:19;;;;;;;30.00;23.20;;;;;;;;;;5100765;28;20051;-90
2021/01/12 00:59:48;;;;;;;27.25;19.83;;;;;;;;;;5101218;28;20396;-86
2021/01/12 01:02:14;;;;;;;27.38;21.10;;;;;;;;;;5100095;28;20101;-89
2021/01/12 01:04:43;;;;;;;25.88;20.20;;;;;;;;;;5100889;28;20035;-90
2021/01/12 01:07:09;;;;;;;27.08;20.25;;;;;;;;;;5104224;28;20030;-88
2021/01/12 01:09:35;;;;;;;26.70;21.23;;;;;;;;;;5101954;28;20058;-89
2021/01/12 01:12:04;;;;;;;26.10;21.15;;;;;;;;;;5101985;28;20369;-87
2021/01/12 01:14:30;;;;;;;29.38;19.88;;;;;;;;;;5102445;28;20031;-89
2021/01/12 01:16:56;;;;;;;25.33;20.08;;;;;;;;;;5101554;28;20019;-86
2021/01/12 01:19:23;;;;;;;26.15;20.60;;;;;;;;;;5101440;28;20023;-87
2021/01/12 01:21:49;;;;;;;25.67;19.20;;;;;;;;;;5100240;28;20034;-90
2021/01/12 01:24:15;;;;;;;25.05;19.45;;;;;;;;;;5101376;28;20051;-88
2021/01/12 01:26:41;;;;;;;25.02;19.83;;;;;;;;;;5102566;28;20080;-90
2021/01/12 01:29:07;;;;;;;24.15;20.73;;;;;;;;;;5101279;28;20363;-89
2021/01/12 01:31:42;;;;;;;21.05;18.67;;;;;;;;;;5100500;28;20106;-88
2021/01/12 01:34:08;;;;;;;23.08;18.33;;;;;;;;;;5100486;28;20035;-87
2021/01/12 01:36:34;;;;;;;20.58;17.67;;;;;;;;;;5100511;28;20073;-88
2021/01/12 01:39:00;;;;;;;23.52;19.38;;;;;;;;;;5100435;28;20094;-89
2021/01/12 01:41:27;;;;;;;22.40;18.02;;;;;;;;;;5100453;28;20034;-88
2021/01/12 01:43:53;;;;;;;24.13;18.48;;;;;;;;;;5101427;28;20081;-88
2021/01/12 01:46:19;;;;;;;26.10;18.02;;;;;;;;;;5102585;28;20346;-90
2021/01/12 01:48:47;;;;;;;24.13;17.67;;;;;;;;;;5120599;28;20354;-88
2021/01/12 01:51:14;;;;;;;18.45;15.30;;;;;;;;;;5120435;28;20079;-89
2021/01/12 01:53:40;;;;;;;21.20;18.90;;;;;;;;;;5102668;28;20034;-88
2021/01/12 01:56:06;;;;;;;20.48;16.30;;;;;;;;;;5119994;28;20027;-86
2021/01/12 01:58:33;;;;;;;22.45;16.98;;;;;;;;;;5102902;28;20036;-87
2021/01/12 02:00:59;;;;;;;19.08;14.90;;;;;;;;;;5102459;28;20047;-88
2021/01/12 02:03:30;;;;;;;17.35;15.10;;;;;;;;;;5101978;28;20035;-88
2021/01/12 02:06:15;;;;;;;19.55;16.67;;;;;;;;;;5102212;28;20039;-89
2021/01/12 02:09:01;;;;;;;18.27;16.20;;;;;;;;;;5102289;28;20035;-88
2021/01/12 02:11:30;;;;;;;18.85;15.52;;;;;;;;;;5102150;28;20035;-88
2021/01/12 02:13:59;;;;;;;19.35;15.30;;;;;;;;;;5101329;28;20045;-88
2021/01/12 02:16:25;;;;;;;20.48;16.35;;;;;;;;;;5101489;28;20031;-88
2021/01/12 02:18:52;;;;;;;21.35;15.90;;;;;;;;;;5101423;28;20100;-87
2021/01/12 02:21:19;;;;;;;16.50;14.27;;;;;;;;;;5120045;28;20027;-87
2021/01/12 02:23:49;;;;;;;21.83;14.75;;;;;;;;;;5119350;28;20028;-84
2021/01/12 02:26:15;;;;;;;18.83;13.10;;;;;;;;;;5101351;28;20056;-87
2021/01/12 02:28:42;;;;;;;19.50;15.90;;;;;;;;;;5120101;28;20032;-87
2021/01/12 02:31:08;;;;;;;21.83;14.55;;;;;;;;;;5100982;28;20108;-87
2021/01/12 02:33:38;;;;;;;14.70;12.27;;;;;;;;;;5101284;28;20028;-85
2021/01/12 02:36:04;;;;;;;18.83;15.25;;;;;;;;;;5103314;28;20028;-87
2021/01/12 02:38:30;;;;;;;17.17;13.68;;;;;;;;;;5102134;28;20053;-87
2021/01/12 02:41:07;;;;;;;14.43;11.98;;;;;;;;;;5119037;28;20076;-87
2021/01/12 02:43:33;;;;;;;16.92;12.48;;;;;;;;;;5101404;28;20032;-85
2021/01/12 02:45:59;;;;;;;17.05;13.70;;;;;;;;;;5100827;28;20038;-88
2021/01/12 02:48:25;;;;;;;17.10;13.32;;;;;;;;;;5102014;28;20042;-89
2021/01/12 02:50:51;;;;;;;18.92;13.20;;;;;;;;;;5119468;28;20027;-87
2021/01/12 02:53:17;;;;;;;15.73;11.60;;;;;;;;;;5100838;28;20104;-88
2021/01/12 02:55:43;;;;;;;14.63;13.07;;;;;;;;;;5101203;28;20032;-87
2021/01/12 02:58:09;;;;;;;13.52;11.63;;;;;;;;;;5101008;28;20118;-86
2021/01/12 03:01:02;;;;;;;15.35;12.48;;;;;;;;;;5118682;28;20026;-89
2021/01/12 03:03:28;;;;;;;14.65;12.95;;;;;;;;;;5119013;28;20072;-87
2021/01/12 03:05:54;;;;;;;14.30;12.15;;;;;;;;;;5100548;28;20120;-89
2021/01/12 03:08:20;;;;;;;16.42;11.15;;;;;;;;;;5100793;28;20081;-89
2021/01/12 03:10:46;;;;;;;14.07;12.60;;;;;;;;;;5118598;28;20028;-87
2021/01/12 03:13:13;;;;;;;15.15;12.40;;;;;;;;;;5100671;28;20020;-86
2021/01/12 03:15:39;;;;;;;12.95;11.55;;;;;;;;;;5118869;28;20068;-87
2021/01/12 03:18:06;;;;;;;15.82;11.82;;;;;;;;;;5118650;28;20091;-86
2021/01/12 03:20:32;;;;;;;14.15;12.40;;;;;;;;;;5101176;28;20036;-86
2021/01/12 03:22:59;;;;;;;12.45;11.15;;;;;;;;;;5100511;28;20024;-85
2021/01/12 03:25:25;;;;;;;16.05;12.07;;;;;;;;;;5100956;28;20051;-87
2021/01/12 03:27:51;;;;;;;16.20;11.75;;;;;;;;;;5100523;28;20066;-85
2021/01/12 03:30:17;;;;;;;12.82;10.55;;;;;;;;;;5100352;28;20038;-87
2021/01/12 03:32:43;;;;;;;11.57;10.18;;;;;;;;;;5101432;28;20154;-87
2021/01/12 03:35:10;;;;;;;13.55;10.48;;;;;;;;;;5098868;28;20031;-85
2021/01/12 03:37:37;;;;;;;12.30;11.00;;;;;;;;;;5117245;28;20016;-87
2021/01/12 03:40:04;;;;;;;13.30;11.27;;;;;;;;;;5099861;28;20038;-87
2021/01/12 03:42:30;;;;;;;12.20;10.95;;;;;;;;;;5117916;28;20024;-87
2021/01/12 03:44:56;;;;;;;12.38;10.77;;;;;;;;;;5117931;28;20036;-85
2021/01/12 03:47:22;;;;;;;13.15;10.55;;;;;;;;;;5117738;28;20110;-86
2021/01/12 03:49:49;;;;;;;12.07;10.77;;;;;;;;;;5099797;28;20150;-86
2021/01/12 03:52:15;;;;;;;13.13;10.82;;;;;;;;;;5099579;28;20023;-85
2021/01/12 03:54:41;;;;;;;10.88;9.60;;;;;;;;;;5100454;28;20038;-87
2021/01/12 03:57:07;;;;;;;11.20;9.73;;;;;;;;;;5118177;28;20426;-84
2021/01/12 03:59:33;;;;;;;12.82;10.82;;;;;;;;;;5099714;28;20047;-87
2021/01/12 04:01:59;;;;;;;11.95;9.82;;;;;;;;;;5118040;28;20431;-86
2021/01/12 04:04:25;;;;;;;10.65;9.05;;;;;;;;;;5099774;28;20043;-86
2021/01/12 04:06:51;;;;;;;13.63;10.63;;;;;;;;;;5117777;28;20034;-85
2021/01/12 04:09:17;;;;;;;13.27;9.98;;;;;;;;;;5100029;28;20036;-87
2021/01/12 04:11:44;;;;;;;11.25;9.32;;;;;;;;;;5099810;28;20027;-87
2021/01/12 04:14:11;;;;;;;13.48;11.15;;;;;;;;;;5099906;28;20028;-86
2021/01/12 04:16:37;;;;;;;10.20;9.20;;;;;;;;;;5099222;28;20164;-87
2021/01/12 04:19:03;;;;;;;11.43;10.23;;;;;;;;;;5099280;28;20127;-87
2021/01/12 04:21:29;;;;;;;10.48;9.38;;;;;;;;;;5099434;28;20024;-86
2021/01/12 04:23:55;;;;;;;10.40;9.30;;;;;;;;;;5099124;28;20031;-86
2021/01/12 04:26:21;;;;;;;9.77;8.15;;;;;;;;;;5098842;28;20057;-87
2021/01/12 04:28:47;;;;;;;10.38;9.38;;;;;;;;;;5099016;28;20389;-88
2021/01/12 04:31:13;;;;;;;10.23;8.50;;;;;;;;;;5098198;28;20012;-86
2021/01/12 04:33:39;;;;;;;9.05;8.18;;;;;;;;;;5098350;28;20265;-86
2021/01/12 04:36:06;;;;;;;8.50;7.63;;;;;;;;;;5098233;28;20046;-84
2021/01/12 04:38:32;;;;;;;8.65;7.80;;;;;;;;;;5099144;28;20034;-87
2021/01/12 04:40:58;;;;;;;8.98;8.07;;;;;;;;;;5100914;28;20024;-86
2021/01/12 04:43:24;;;;;;;9.32;8.18;;;;;;;;;;5103033;28;20028;-87
2021/01/12 04:45:50;;;;;;;8.38;7.57;;;;;;;;;;5102530;28;20380;-87
2021/01/12 04:48:16;;;;;;;8.73;7.78;;;;;;;;;;5102428;28;20031;-87
2021/01/12 04:50:42;;;;;;;8.98;7.60;;;;;;;;;;5102514;28;20165;-86
2021/01/12 04:53:08;;;;;;;7.60;6.85;;;;;;;;;;5118101;28;20020;-86
2021/01/12 04:55:34;;;;;;;11.43;7.57;;;;;;;;;;5102386;28;20369;-87
2021/01/12 04:58:01;;;;;;;7.25;6.55;;;;;;;;;;5103087;28;20027;-86
2021/01/12 05:00:29;;;;;;;8.38;6.90;;;;;;;;;;5103030;28;20387;-87
2021/01/12 05:03:04;;;;;;;8.77;7.35;;;;;;;;;;5120826;28;20026;-88
2021/01/12 05:05:38;;;;;;;7.97;7.00;;;;;;;;;;5102273;28;20129;-87
2021/01/12 05:08:06;;;;;;;9.85;7.20;;;;;;;;;;5102555;28;20042;-86
2021/01/12 05:10:37;;;;;;;8.23;7.45;;;;;;;;;;5120006;28;20350;-86
2021/01/12 05:13:07;;;;;;;8.32;7.07;;;;;;;;;;5102579;28;20122;-87
2021/01/12 05:15:33;;;;;;;7.35;6.65;;;;;;;;;;5091719;28;20028;-86
2021/01/12 05:18:02;;;;;;;8.35;7.05;;;;;;;;;;5081294;28;20020;-86
2021/01/12 05:20:28;;;;;;;7.78;6.97;;;;;;;;;;5110799;28;20050;-86
2021/01/12 05:23:07;;;;;;;7.32;6.00;;;;;;;;;;5102062;28;20457;-87
2021/01/12 05:25:36;;;;;;;9.65;6.90;;;;;;;;;;5102554;28;20102;-87
2021/01/12 05:28:03;;;;;;;8.95;7.38;;;;;;;;;;5102611;28;20045;-88
2021/01/12 05:30:29;;;;;;;7.00;6.30;;;;;;;;;;5120594;28;20072;-89
2021/01/12 05:32:56;;;;;;;7.40;6.13;;;;;;;;;;5102079;28;20031;-88
2021/01/12 05:35:25;;;;;;;7.82;7.03;;;;;;;;;;5120213;28;20020;-88
2021/01/12 05:37:55;;;;;;;6.35;5.75;;;;;;;;;;5120710;28;20065;-88
2021/01/12 05:40:24;;;;;;;7.90;6.15;;;;;;;;;;5101818;28;20088;-87
2021/01/12 05:42:51;;;;;;;6.55;5.90;;;;;;;;;;5101939;28;20042;-86
2021/01/12 05:45:17;;;;;;;7.15;6.20;;;;;;;;;;5119512;28;20040;-87
2021/01/12 05:47:43;;;;;;;7.47;6.65;;;;;;;;;;5101906;28;20020;-88
2021/01/12 05:50:16;;;;;;;6.57;5.97;;;;;;;;;;5098062;28;20028;-87
2021/01/12 05:52:56;;;;;;;7.40;6.60;;;;;;;;;;5099570;28;20435;-86
2021/01/12 05:55:23;;;;;;;6.88;6.18;;;;;;;;;;5101715;28;20280;-87
2021/01/12 05:57:53;;;;;;;6.35;5.40;;;;;;;;;;5101477;28;20082;-88
2021/01/12 06:00:20;;;;;;;6.07;5.07;;;;;;;;;;5119207;28;20036;-87
2021/01/12 06:02:46;;;;;;;6.57;5.97;;;;;;;;;;5100533;28;20027;-89
2021/01/12 06:05:13;;;;;;;6.47;5.88;;;;;;;;;;5101311;28;20044;-88
2021/01/12 06:07:39;;;;;;;5.78;5.18;;;;;;;;;;5119101;28;20034;-86
2021/01/12 06:10:07;;;;;;;7.18;5.22;;;;;;;;;;5101371;28;20032;-87
2021/01/12 06:12:36;;;;;;;6.97;6.27;;;;;;;;;;5102231;28;20036;-88
2021/01/12 06:15:04;;;;;;;6.60;5.90;;;;;;;;;;5100806;28;20047;-85
2021/01/12 06:17:33;;;;;;;5.32;4.93;;;;;;;;;;5101247;28;20055;-87
2021/01/12 06:20:02;;;;;;;5.43;4.90;;;;;;;;;;5100620;28;20112;-88
2021/01/12 06:22:28;;;;;;;;;;;;;;;;;;5118382;28;20035;-87
2021/01/12 06:25:08;;;;;;;5.85;5.25;;;;;;;;;;5099888;28;20007;-87
2021/01/12 06:27:35;;;;;;;6.32;5.75;;;;;;;;;;5118419;28;20039;-87
2021/01/12 06:30:04;;;;;;;5.95;5.45;;;;;;;;;;5101036;28;20229;-87
2021/01/12 06:32:31;;;;;;;5.90;5.40;;;;;;;;;;5097448;28;20101;-87
2021/01/12 06:34:59;;;;;;;6.15;5.55;;;;;;;;;;5098917;28;20124;-87
2021/01/12 06:37:26;;;;;;;6.32;5.70;;;;;;;;;;5105556;28;20015;-87
2021/01/12 06:39:53;;;;;;;7.93;5.15;;;;;;;;;;5102106;28;20027;-88
2021/01/12 06:42:38;;;;;;;6.63;4.82;;;;;;;;;;5101175;28;20032;-87
2021/01/12 06:45:05;;;;;;;5.88;5.40;;;;;;;;;;5108930;28;20082;-86
2021/01/12 06:47:32;;;;;;;6.50;5.80;;;;;;;;;;5120850;28;20020;-88
2021/01/12 06:50:04;;;;;;;5.38;4.20;;;;;;;;;;5121420;28;20027;-88
2021/01/12 06:52:30;;;;;;;4.70;4.30;;;;;;;;;;5105010;28;20331;-87
2021/01/12 06:55:05;;;;;;;6.65;5.25;;;;;;;;;;5118876;27;20003;-88
2021/01/12 06:57:33;;;;;;;6.03;5.35;;;;;;;;;;5137992;27;20033;-86
2021/01/12 06:59:59;;;;;;;4.82;4.43;;;;;;;;;;5120449;28;20043;-88
2021/01/12 07:02:29;;;;;;;5.13;4.72;;;;;;;;;;5119177;27;20035;-87
2021/01/12 07:04:58;;;;;;;5.70;5.20;;;;;;;;;;5133203;28;20080;-86
2021/01/12 07:07:26;;;;;;;6.55;4.70;;;;;;;;;;5115299;28;20044;-90
2021/01/12 07:09:53;;;;;;;5.00;4.43;;;;;;;;;;5105650;28;20012;-87
2021/01/12 07:12:20;;;;;;;5.75;5.25;;;;;;;;;;5116529;28;20019;-87
2021/01/12 07:14:47;;;;;;;6.70;5.10;;;;;;;;;;5111247;28;20024;-88
2021/01/12 07:17:13;;;;;;;5.05;4.63;;;;;;;;;;5107099;28;20020;-87
2021/01/12 07:19:40;;;;;;;5.47;4.97;;;;;;;;;;5113627;28;20023;-85
2021/01/12 07:22:09;;;;;;;5.50;4.80;;;;;;;;;;5127075;28;20035;-88
2021/01/12 07:24:39;;;;;;;5.93;5.30;;;;;;;;;;5103391;28;20363;-88
2021/01/12 07:27:06;;;;;;;6.78;6.05;;;;;;;;;;5104132;28;20031;-89
2021/01/12 07:29:33;;;;;;;5.53;5.13;;;;;;;;;;5121410;28;20039;-88
2021/01/12 07:32:05;;;;;;;5.60;5.10;;;;;;;;;;5101804;28;20099;-88
2021/01/12 07:34:36;;;;;;;5.65;5.15;;;;;;;;;;5101420;28;20035;-88
2021/01/12 07:37:05;;;;;;;5.82;5.25;;;;;;;;;;5089709;28;20119;-87
2021/01/12 07:39:34;;;;;;;6.13;5.63;;;;;;;;;;5100196;28;20036;-88
2021/01/12 07:42:02;;;;;;;6.40;5.80;;;;;;;;;;5099887;28;20401;-88
2021/01/12 07:44:28;;;;;;;5.30;4.85;;;;;;;;;;5098861;28;20036;-87
2021/01/12 07:46:57;;;;;;;6.30;5.80;;;;;;;;;;5101037;28;20028;-87
2021/01/12 07:49:25;;;;;;;5.60;5.03;;;;;;;;;;5117446;28;20070;-89
2021/01/12 07:51:51;;;;;;;5.85;5.38;;;;;;;;;;5098680;28;20109;-87
2021/01/12 07:54:24;;;;;;;6.88;6.18;;;;;;;;;;5099249;28;20040;-87
2021/01/12 07:56:51;;;;;;;5.57;5.07;;;;;;;;;;5090674;28;20049;-87
2021/01/12 07:59:17;;;;;;;5.85;5.35;;;;;;;;;;5114035;28;20298;-88
2021/01/12 08:01:44;;;;;;;6.38;5.85;;;;;;;;;;5113475;28;20024;-86
2021/01/12 08:04:13;;;;;;;6.15;5.65;;;;;;;;;;5096251;28;20054;-88
2021/01/12 08:06:43;;;;;;;5.82;5.32;;;;;;;;;;5098358;28;20024;-87
2021/01/12 08:09:09;;;;;;;6.05;5.45;;;;;;;;;;5098102;28;20539;-89
2021/01/12 08:11:41;;;;;;;7.10;6.40;;;;;;;;;;5096413;28;20461;-88
2021/01/12 08:14:07;;;;;;;7.78;6.28;;;;;;;;;;5098151;28;20035;-87
2021/01/12 08:16:34;;;;;;;6.90;6.35;;;;;;;;;;5101210;28;20298;-85
2021/01/12 08:19:00;;;;;;;6.57;5.97;;;;;;;;;;5102204;28;20339;-90
2021/01/12 08:21:26;;;;;;;6.20;5.65;;;;;;;;;;5100339;28;20031;-89
2021/01/12 08:24:00;;;;;;;7.63;6.82;;;;;;;;;;5101619;28;20076;-88
2021/01/12 08:26:27;;;;;;;7.72;6.35;;;;;;;;;;5116703;28;20043;-86
2021/01/12 08:28:54;;;;;;;7.45;6.75;;;;;;;;;;5102369;28;20058;-88
2021/01/12 08:31:20;;;;;;;6.95;6.25;;;;;;;;;;5102355;28;20031;-88
2021/01/12 08:33:47;;;;;;;6.65;6.03;;;;;;;;;;5118296;28;20059;-89
2021/01/12 08:36:17;;;;;;;6.45;5.85;;;;;;;;;;5101001;28;20031;-87
2021/01/12 08:38:48;;;;;;;7.40;6.70;;;;;;;;;;5106208;28;20031;-87
2021/01/12 08:41:15;;;;;;;7.35;6.70;;;;;;;;;;5102671;28;20031;-87
2021/01/12 08:43:41;;;;;;;7.40;6.45;;;;;;;;;;5119693;28;20035;-87
2021/01/12 08:46:07;;;;;;;7.20;6.50;;;;;;;;;;5103525;28;20031;-85
2021/01/12 08:48:34;;;;;;;5.97;5.43;;;;;;;;;;5120863;28;20348;-88
2021/01/12 08:51:00;;;;;;;7.05;6.35;;;;;;;;;;5102812;28;20067;-86
2021/01/12 08:53:32;;;;;;;6.93;6.28;;;;;;;;;;5109856;28;20076;-86
2021/01/12 08:56:05;;;;;;;5.95;5.45;;;;;;;;;;5107400;28;20028;-87
2021/01/12 08:58:31;;;;;;;6.38;5.85;;;;;;;;;;5096837;28;20312;-85
2021/01/12 09:01:03;;;;;;;5.88;5.38;;;;;;;;;;5105006;28;20076;-87
2021/01/12 09:03:35;;;;;;;7.68;5.90;;;;;;;;;;5105640;28;20024;-87
2021/01/12 09:06:01;;;;;;;6.03;5.53;;;;;;;;;;5116648;28;20114;-85
2021/01/12 09:08:37;;;;;;;6.03;5.45;;;;;;;;;;5100851;28;20393;-88
2021/01/12 09:11:07;;;;;;;7.47;5.68;;;;;;;;;;5096314;28;20362;-86
2021/01/12 09:13:34;;;;;;;6.45;5.85;;;;;;;;;;5101281;28;20067;-87
2021/01/12 09:16:01;;;;;;;6.40;5.80;;;;;;;;;;5100001;28;20027;-86
2021/01/12 09:18:27;;;;;;;5.32;4.82;;;;;;;;;;5104643;28;20023;-86
2021/01/12 09:20:57;;;;;;;5.97;5.43;;;;;;;;;;5100863;28;20023;-86
2021/01/12 09:23:24;;;;;;;8.10;5.57;;;;;;;;;;5101909;28;20027;-86
2021/01/12 09:25:51;;;;;;;5.80;5.30;;;;;;;;;;5100791;28;20442;-85
2021/01/12 09:28:19;;;;;;;5.63;5.00;;;;;;;;;;5094865;28;20415;-87
2021/01/12 09:30:46;;;;;;;5.28;4.78;;;;;;;;;;5105370;28;20034;-86
2021/01/12 09:33:23;;;;;;;5.15;4.60;;;;;;;;;;5101626;28;20028;-86
2021/01/12 09:35:49;;;;;;;5.18;4.68;;;;;;;;;;5113879;28;20134;-85
2021/01/12 09:38:16;;;;;;;5.10;4.60;;;;;;;;;;5100532;28;20095;-86
2021/01/12 09:40:42;;;;;;;6.78;4.78;;;;;;;;;;5097486;28;20023;-86
2021/01/12 09:43:09;;;;;;;4.75;4.25;;;;;;;;;;5105472;28;20030;-87
2021/01/12 09:45:37;;;;;;;5.22;4.15;;;;;;;;;;5106228;28;20043;-87
2021/01/12 09:48:05;;;;;;;5.70;3.92;;;;;;;;;;5101198;28;20030;-87
2021/01/12 09:50:31;;;;;;;3.88;3.58;;;;;;;;;;5100447;28;20172;-85
2021/01/12 09:52:57;;;;;;;4.55;3.78;;;;;;;;;;5111474;28;20057;-86
2021/01/12 09:55:29;;;;;;;4.72;3.92;;;;;;;;;;5101478;28;20031;-87
2021/01/12 09:57:55;;;;;;;4.80;4.30;;;;;;;;;;5096767;28;20070;-85
2021/01/12 10:00:21;;;;;;;4.70;4.30;;;;;;;;;;5097750;28;20044;-86
2021/01/12 10:02:47;;;;;;;4.05;3.58;;;;;;;;;;5106390;28;20034;-86
2021/01/12 10:05:23;;;;;;;7.10;3.72;;;;;;;;;;5125213;28;20114;-87
2021/01/12 10:07:49;;;;;;;4.95;3.92;;;;;;;;;;5117349;28;20027;-88
2021/01/12 10:10:21;;;;;;;4.80;3.65;;;;;;;;;;5101833;28;20046;-85
2021/01/12 10:12:48;;;;;;;4.38;4.00;;;;;;;;;;5112029;28;20027;-86
2021/01/12 10:15:15;;;;;;;4.72;4.10;;;;;;;;;;5107714;28;20024;-84
2021/01/12 10:17:43;;;;;;;4.75;3.80;;;;;;;;;;5101107;28;20045;-86
2021/01/12 10:20:09;;;;;;;4.78;3.90;;;;;;;;;;5101417;28;20074;-85
2021/01/12 10:22:36;;;;;;;4.07;3.70;;;;;;;;;;5102099;28;20023;-85
2021/01/12 10:25:03;;;;;;;4.97;3.70;;;;;;;;;;5105720;28;20190;-86
2021/01/12 10:27:40;;;;;;;4.43;3.42;;;;;;;;;;5097946;28;20388;-85
2021/01/12 10:30:19;;;;;;;4.55;3.67;;;;;;;;;;5114566;28;20059;-86
2021/01/12 10:32:53;;;;;;;6.55;3.58;;;;;;;;;;5100805;28;20084;-86
2021/01/12 10:35:21;;;;;;;4.75;3.83;;;;;;;;;;5104360;28;20132;-85
2021/01/12 10:37:48;;;;;;;4.80;3.58;;;;;;;;;;5099236;28;20019;-86
2021/01/12 10:40:14;;;;;;;6.13;2.92;;;;;;;;;;5116411;28;20023;-86
2021/01/12 10:42:44;;;;;;;4.35;3.15;;;;;;;;;;5096699;28;20030;-87
2021/01/12 10:45:11;;;;;;;5.43;3.05;;;;;;;;;;5098959;28;20105;-85
2021/01/12 10:47:43;;;;;;;3.17;2.85;;;;;;;;;;5111941;28;20035;-88
2021/01/12 10:50:19;;;;;;;5.30;3.30;;;;;;;;;;5085708;28;20032;-89
2021/01/12 10:52:45;;;;;;;3.70;3.00;;;;;;;;;;5099283;28;20030;-87
2021/01/12 10:55:12;;;;;;;2.97;2.78;;;;;;;;;;5099019;28;20031;-87
2021/01/12 10:57:38;;;;;;;6.03;3.38;;;;;;;;;;5095777;28;20027;-86
2021/01/12 11:00:05;;;;;;;2.85;2.63;;;;;;;;;;5098645;28;20031;-85
2021/01/12 11:02:32;;;;;;;4.45;2.72;;;;;;;;;;5088533;28;20443;-85
2021/01/12 11:04:59;;;;;;;2.63;2.42;;;;;;;;;;5101847;28;20168;-89
2021/01/12 11:07:25;;;;;;;2.38;2.15;;;;;;;;;;5097548;28;20036;-85
2021/01/12 11:09:52;;;;;;;4.60;2.30;;;;;;;;;;5098372;28;20047;-87
2021/01/12 11:12:22;;;;;;;2.03;1.90;;;;;;;;;;5100578;28;20024;-87
2021/01/12 11:14:49;;;;;;;5.10;2.05;;;;;;;;;;5099348;28;20031;-86
2021/01/12 11:17:15;;;;;;;2.10;1.90;;;;;;;;;;5116446;28;20031;-88
2021/01/12 11:19:42;;;;;;;3.05;1.35;;;;;;;;;;5100425;28;20034;-87
2021/01/12 11:22:11;;;;;;;2.70;1.80;;;;;;;;;;5100110;28;20035;-88
2021/01/12 11:24:37;;;;;;;1.88;1.45;;;;;;;;;;5098264;28;20047;-89
2021/01/12 11:27:05;;;;;;;2.55;1.40;;;;;;;;;;5116529;28;20027;-88
2021/01/12 11:29:32;;;;;;;3.28;1.55;;;;;;;;;;5096490;28;20290;-86
2021/01/12 11:31:59;;;;;;;2.30;1.48;;;;;;;;;;5096230;28;20067;-86
2021/01/12 11:34:26;;;;;;;5.25;1.40;;;;;;;;;;5095710;28;20031;-89
2021/01/12 11:36:52;;;;;;;2.95;1.63;;;;;;;;;;5113165;28;20030;-89
2021/01/12 11:39:19;;;;;;;1.20;1.10;;;;;;;;;;5095639;28;20514;-88
2021/01/12 11:41:45;;;;;;;2.60;1.45;;;;;;;;;;5112654;28;20069;-87
2021/01/12 11:44:13;;;;;;;1.83;1.45;;;;;;;;;;5115060;28;20031;-88
2021/01/12 11:46:39;;;;;;;2.55;1.10;;;;;;;;;;5098149;28;20124;-87
2021/01/12 11:49:05;;;;;;;2.65;1.08;;;;;;;;;;5104995;28;20073;-87
2021/01/12 11:51:35;;;;;;;3.55;0.98;;;;;;;;;;5099056;28;20133;-87
2021/01/12 11:54:01;;;;;;;5.03;1.33;;;;;;;;;;5098724;28;20031;-86
2021/01/12 11:56:35;;;;;;;3.58;1.35;;;;;;;;;;5104878;28;20023;-88
2021/01/12 11:59:01;;;;;;;3.53;1.52;;;;;;;;;;5116904;28;20073;-90
2021/01/12 12:01:27;;;;;;;2.53;1.08;;;;;;;;;;5097908;28;20090;-88
2021/01/12 12:03:53;;;;;;;2.38;1.10;;;;;;;;;;5097971;28;20088;-87
2021/01/12 12:06:23;;;;;;;6.30;1.27;;;;;;;;;;5099588;28;20047;-88
2021/01/12 12:08:49;;;;;;;1.80;0.90;;;;;;;;;;5094277;28;20034;-84
2021/01/12 12:11:15;;;;;;;2.08;1.60;;;;;;;;;;5106127;28;20359;-88
2021/01/12 12:13:41;;;;;;;3.38;1.10;;;;;;;;;;5098171;28;20048;-90
2021/01/12 12:16:18;;;;;;;2.58;1.20;;;;;;;;;;5092513;28;20058;-86
2021/01/12 12:18:44;;;;;;;4.40;1.33;;;;;;;;;;5104384;28;20043;-86
2021/01/12 12:21:13;;;;;;;3.33;1.20;;;;;;;;;;5100599;28;20032;-88
2021/01/12 12:23:40;;;;;;;1.10;0.82;;;;;;;;;;5096665;28;20397;-88
2021/01/12 12:26:14;;;;;;;1.63;1.30;;;;;;;;;;5094678;28;20035;-86
2021/01/12 12:28:41;;;;;;;2.28;1.00;;;;;;;;;;5093589;28;20020;-89
2021/01/12 12:31:07;;;;;;;1.30;0.68;;;;;;;;;;5114515;28;20027;-87
2021/01/12 12:33:36;;;;;;;4.72;1.13;;;;;;;;;;5096392;28;20100;-88
2021/01/12 12:36:02;;;;;;;;;;;;;;;;;;5097393;28;20036;-86
2021/01/12 12:38:28;;;;;;;1.10;0.88;;;;;;;;;;5096969;28;19916;-87
2021/01/12 12:40:54;;;;;;;1.08;0.65;;;;;;;;;;5097578;28;20024;-89
2021/01/12 12:43:20;;;;;;;2.13;0.90;;;;;;;;;;5096421;28;20024;-87
2021/01/12 12:45:47;;;;;;;1.13;0.77;;;;;;;;;;5098632;28;20054;-87
2021/01/12 12:48:13;;;;;;;0.85;0.55;;;;;;;;;;5098299;28;20024;-88
2021/01/12 12:50:39;;;;;;;1.73;0.63;;;;;;;;;;5098959;28;20024;-88
2021/01/12 12:53:06;;;;;;;2.78;0.70;;;;;;;;;;5098704;28;20129;-86
2021/01/12 12:55:32;;;;;;;8.27;1.02;;;;;;;;;;5098063;28;20020;-86
2021/01/12 12:57:59;;;;;;;3.08;0.98;;;;;;;;;;5098943;28;20024;-86
2021/01/12 13:00:26;;;;;;;1.95;1.00;;;;;;;;;;5116653;28;20038;-86
2021/01/12 13:02:55;;;;;;;2.42;0.80;;;;;;;;;;5119561;28;20028;-90
2021/01/12 13:05:22;;;;;;;1.50;0.60;;;;;;;;;;5101217;28;20040;-87
2021/01/12 13:07:48;;;;;;;3.05;0.63;;;;;;;;;;5102493;28;20123;-86
2021/01/12 13:10:15;;;;;;;3.35;0.70;;;;;;;;;;5119602;28;20024;-90
2021/01/12 13:12:43;;;;;;;1.70;0.60;;;;;;;;;;5119286;28;20031;-87
2021/01/12 13:15:09;;;;;;;1.55;0.88;;;;;;;;;;5101768;28;20065;-87
2021/01/12 13:17:42;;;;;;;3.58;0.80;;;;;;;;;;5101372;28;20142;-88
2021/01/12 13:20:08;;;;;;;1.45;0.60;;;;;;;;;;5101628;28;20031;-89
2021/01/12 13:22:35;;;;;;;2.35;0.70;;;;;;;;;;5102066;28;20343;-88
2021/01/12 13:25:05;;;;;;;1.35;0.60;;;;;;;;;;5100553;28;20039;-89
2021/01/12 13:27:31;;;;;;;;;;;;;;;;;;5100557;28;20383;-89
2021/01/12 13:29:57;;;;;;;5.43;0.93;;;;;;;;;;5100501;28;20455;-87
2021/01/12 13:32:23;;;;;;;1.50;0.65;;;;;;;;;;5100789;28;20099;-87
2021/01/12 13:34:50;;;;;;;3.17;0.68;;;;;;;;;;5100384;28;20020;-86
2021/01/12 13:37:17;;;;;;;4.40;0.82;;;;;;;;;;5100249;28;20034;-88
2021/01/12 13:39:43;;;;;;;3.75;0.80;;;;;;;;;;5102254;28;20055;-85
2021/01/12 13:42:16;;;;;;;3.25;0.75;;;;;;;;;;5099736;28;20027;-86
2021/01/12 13:44:42;;;;;;;5.65;0.80;;;;;;;;;;5099146;28;20043;-86
2021/01/12 13:47:08;;;;;;;1.33;0.65;;;;;;;;;;5118654;28;20023;-90
2021/01/12 13:49:34;;;;;;;1.35;0.50;;;;;;;;;;5101783;28;20031;-88
2021/01/12 13:52:03;;;;;;;2.33;0.60;;;;;;;;;;5100540;28;20223;-89
2021/01/12 13:54:40;;;;;;;2.88;0.80;;;;;;;;;;5102062;28;20038;-86
2021/01/12 13:57:18;;;;;;;8.45;0.90;;;;;;;;;;5107979;28;20066;-89
2021/01/12 13:59:54;;;;;;;3.72;0.82;;;;;;;;;;5101593;28;20027;-87
2021/01/12 14:02:21;;;;;;;3.38;1.27;;;;;;;;;;5103263;28;20068;-88
2021/01/12 14:04:48;;;;;;;2.97;1.00;;;;;;;;;;5114206;28;20188;-87
2021/01/12 14:07:14;;;;;;;3.53;0.65;;;;;;;;;;5101543;28;20027;-88
2021/01/12 14:09:43;;;;;;;2.80;1.10;;;;;;;;;;5102607;28;20051;-89
2021/01/12 14:12:16;;;;;;;2.35;0.73;;;;;;;;;;5102034;28;20053;-89
2021/01/12 14:14:43;;;;;;;4.25;0.73;;;;;;;;;;5100918;28;20028;-89
2021/01/12 14:17:10;;;;;;;3.55;0.80;;;;;;;;;;5119148;28;20023;-90
2021/01/12 14:19:37;;;;;;;1.63;0.77;;;;;;;;;;5120653;28;20027;-87
2021/01/12 14:22:07;;;;;;;4.57;1.00;;;;;;;;;;5102684;28;20032;-89
2021/01/12 14:24:34;;;;;;;2.53;0.70;;;;;;;;;;5119134;28;20083;-89
2021/01/12 14:27:00;;;;;;;3.28;0.93;;;;;;;;;;5101887;28;20311;-90
2021/01/12 14:29:32;;;;;;;2.22;0.70;;;;;;;;;;5101561;28;20054;-90
2021/01/12 14:31:59;;;;;;;4.43;0.90;;;;;;;;;;5101088;28;20040;-89
2021/01/12 14:34:37;;;;;;;7.10;0.80;;;;;;;;;;5101061;28;20127;-89
2021/01/12 14:37:17;;;;;;;2.38;0.70;;;;;;;;;;5118266;28;20076;-89
2021/01/12 14:40:22;;;;;;;3.83;0.70;;;;;;;;;;5101209;28;20078;-88
2021/01/12 14:42:51;;;;;;;3.60;0.90;;;;;;;;;;5099232;28;20030;-88